createdAt,value
2022-10-15T00:00:24.951Z,5.98
2022-10-15T00:02:51.933Z,8.44
2022-10-15T00:05:19.089Z,8.08
2022-10-15T00:07:46.047Z,8.80
2022-10-15T00:10:13.245Z,8.08
2022-10-15T00:12:41.443Z,8.79
2022-10-15T00:15:10.123Z,8.81
2022-10-15T00:17:37.909Z,8.83
2022-10-15T00:20:08.600Z,-0.41
2022-10-15T00:22:36.035Z,8.49
2022-10-15T00:25:03.192Z,8.49
2022-10-15T00:27:30.141Z,7.16
2022-10-15T00:29:57.229Z,7.86
2022-10-15T00:32:24.503Z,6.54
2022-10-15T00:34:51.663Z,7.43
2022-10-15T00:37:18.704Z,6.03
2022-10-15T00:39:45.743Z,7.61
2022-10-15T00:42:13.092Z,6.13
2022-10-15T00:44:50.691Z,8.91
2022-10-15T00:47:26.697Z,8.93
2022-10-15T00:49:56.958Z,8.95
2022-10-15T00:52:30.466Z,3.52
2022-10-15T00:55:06.373Z,9.01
2022-10-15T00:57:34.340Z,7.75
2022-10-15T01:00:06.598Z,5.55
2022-10-15T01:02:33.999Z,6.56
2022-10-15T01:05:01.462Z,1.54
2022-10-15T01:07:28.566Z,7.83
2022-10-15T01:09:55.651Z,8.33
2022-10-15T01:12:26.059Z,9.06
2022-10-15T01:15:31.979Z,9.01
2022-10-15T01:18:16.147Z,9.04
2022-10-15T01:21:08.672Z,9.02
2022-10-15T01:23:52.470Z,8.52
2022-10-15T01:26:30.258Z,8.99
2022-10-15T01:29:22.169Z,9.00
2022-10-15T01:32:09.035Z,8.98
2022-10-15T01:34:51.363Z,8.96
2022-10-15T01:37:24.479Z,8.98
2022-10-15T01:39:56.450Z,7.15
2022-10-15T01:42:31.451Z,8.96
2022-10-15T01:45:04.130Z,8.64
2022-10-15T01:47:43.865Z,8.98
2022-10-15T01:50:13.502Z,7.63
2022-10-15T01:52:42.222Z,8.46
2022-10-15T01:55:14.295Z,8.59
2022-10-15T01:57:44.549Z,6.63
2022-10-15T02:00:12.906Z,1.26
2022-10-15T02:02:40.067Z,8.55
2022-10-15T02:05:10.685Z,8.84
2022-10-15T02:07:48.252Z,7.78
2022-10-15T02:10:50.674Z,8.81
2022-10-15T02:13:46.715Z,8.80
2022-10-15T02:16:55.274Z,7.18
2022-10-15T02:19:44.589Z,8.48
2022-10-15T02:22:35.055Z,8.69
2022-10-15T02:25:14.662Z,7.79
2022-10-15T02:27:43.392Z,8.50
2022-10-15T02:30:11.852Z,6.61
2022-10-15T02:32:41.823Z,7.83
2022-10-15T02:35:11.801Z,8.70
2022-10-15T02:37:43.321Z,6.92
2022-10-15T02:40:10.930Z,8.45
2022-10-15T02:42:38.099Z,8.24
2022-10-15T02:45:05.499Z,4.21
2022-10-15T02:47:33.090Z,6.13
2022-10-15T02:50:00.136Z,2.65
2022-10-15T02:52:27.298Z,8.61
2022-10-15T02:54:56.665Z,3.44
2022-10-15T02:57:23.731Z,6.77
2022-10-15T02:59:50.899Z,2.52
2022-10-15T03:02:19.332Z,0.08
2022-10-15T03:04:46.828Z,-0.97
2022-10-15T03:07:14.586Z,6.65
2022-10-15T03:09:41.446Z,0.93
2022-10-15T03:12:08.883Z,4.81
2022-10-15T03:14:36.046Z,6.17
2022-10-15T03:17:03.034Z,-2.15
2022-10-15T03:19:30.077Z,6.81
2022-10-15T03:21:57.142Z,3.83
2022-10-15T03:24:24.134Z,1.85
2022-10-15T03:26:57.012Z,2.20
2022-10-15T03:29:24.167Z,-2.89
2022-10-15T03:31:51.178Z,-3.17
2022-10-15T03:34:18.523Z,-0.68
2022-10-15T03:36:45.792Z,2.64
2022-10-15T03:39:19.940Z,-3.98
2022-10-15T03:41:47.711Z,-4.28
2022-10-15T03:44:23.721Z,8.58
2022-10-15T03:46:50.975Z,2.18
2022-10-15T03:49:30.297Z,-3.56
2022-10-15T03:51:57.467Z,1.41
2022-10-15T03:54:26.919Z,8.03
2022-10-15T03:56:53.865Z,1.74
2022-10-15T03:59:24.749Z,6.71
2022-10-15T04:01:56.165Z,8.48
2022-10-15T04:04:23.146Z,2.09
2022-10-15T04:06:50.079Z,5.89
2022-10-15T04:09:16.978Z,7.67
2022-10-15T04:11:43.998Z,1.57
2022-10-15T04:14:11.008Z,0.16
2022-10-15T04:16:38.086Z,1.46
2022-10-15T04:19:10.244Z,3.35
2022-10-15T04:21:41.056Z,-4.52
2022-10-15T04:24:10.511Z,0.19
2022-10-15T04:26:37.932Z,7.95
2022-10-15T04:29:11.070Z,3.52
2022-10-15T04:31:38.076Z,-3.91
2022-10-15T04:34:05.456Z,4.25
2022-10-15T04:36:32.397Z,5.72
2022-10-15T04:38:59.413Z,4.56
2022-10-15T04:41:26.519Z,5.33
2022-10-15T04:43:53.579Z,7.33
2022-10-15T04:46:23.096Z,-1.29
2022-10-15T04:48:50.776Z,8.15
2022-10-15T04:51:20.324Z,3.13
2022-10-15T04:53:47.754Z,8.44
2022-10-15T04:56:18.310Z,2.17
2022-10-15T04:58:46.970Z,1.84
2022-10-15T05:01:19.993Z,2.35
2022-10-15T05:03:49.048Z,3.02
2022-10-15T05:06:21.825Z,8.51
2022-10-15T05:08:49.979Z,-3.92
2022-10-15T05:11:20.144Z,2.59
2022-10-15T05:13:47.377Z,3.64
2022-10-15T05:16:17.372Z,2.89
2022-10-15T05:18:47.867Z,2.87
2022-10-15T05:21:15.415Z,3.48
2022-10-15T05:23:42.642Z,3.17
2022-10-15T05:26:13.923Z,-3.16
2022-10-15T05:28:41.508Z,3.07
2022-10-15T05:31:16.041Z,-2.07
2022-10-15T05:33:46.323Z,6.00
2022-10-15T05:36:19.851Z,6.87
2022-10-15T05:38:55.707Z,-3.38
2022-10-15T05:41:26.639Z,5.49
2022-10-15T05:43:56.005Z,6.51
2022-10-15T05:46:23.712Z,8.78
2022-10-15T05:48:56.064Z,8.80
2022-10-15T05:51:24.162Z,8.81
2022-10-15T05:53:58.498Z,8.47
2022-10-15T05:56:26.157Z,8.83
2022-10-15T05:58:53.172Z,8.20
2022-10-15T06:01:20.898Z,7.06
2022-10-15T06:03:48.347Z,7.57
2022-10-15T06:06:18.045Z,9.00
2022-10-15T06:08:45.830Z,8.91
2022-10-15T06:11:13.072Z,1.73
2022-10-15T06:13:41.397Z,0.81
2022-10-15T06:16:09.672Z,-1.10
2022-10-15T06:18:37.579Z,4.66
2022-10-15T06:21:06.092Z,1.72
2022-10-15T06:23:33.181Z,-0.04
2022-10-15T06:26:08.358Z,7.20
2022-10-15T06:28:37.286Z,9.09
2022-10-15T06:31:05.244Z,7.77
2022-10-15T06:33:32.980Z,9.54
2022-10-15T06:36:10.910Z,4.94
2022-10-15T06:38:39.633Z,4.92
2022-10-15T06:41:08.165Z,9.67
2022-10-15T06:43:35.660Z,6.52
2022-10-15T06:46:04.730Z,9.80
2022-10-15T06:48:32.998Z,4.42
2022-10-15T06:51:01.325Z,6.73
2022-10-15T06:53:29.923Z,8.47
2022-10-15T06:56:02.032Z,9.25
2022-10-15T06:58:29.905Z,9.28
2022-10-15T07:01:02.452Z,9.79
2022-10-15T07:03:29.779Z,8.86
2022-10-15T07:05:57.056Z,9.86
2022-10-15T07:08:26.009Z,7.89
2022-10-15T07:10:52.932Z,8.21
2022-10-15T07:13:19.883Z,4.61
2022-10-15T07:15:49.883Z,4.50
2022-10-15T07:18:16.856Z,2.75
2022-10-15T07:20:43.780Z,10.54
2022-10-15T07:23:13.221Z,5.98
2022-10-15T07:25:42.400Z,9.18
2022-10-15T07:28:09.442Z,8.12
2022-10-15T07:30:36.451Z,2.63
2022-10-15T07:33:06.135Z,3.13
2022-10-15T07:35:34.399Z,5.61
2022-10-15T07:38:02.437Z,3.28
2022-10-15T07:40:29.821Z,1.59
2022-10-15T07:43:01.321Z,4.56
2022-10-15T07:45:28.843Z,3.97
2022-10-15T07:47:59.136Z,2.68
2022-10-15T07:50:29.198Z,4.63
2022-10-15T07:52:59.482Z,2.73
2022-10-15T07:55:26.450Z,0.30
2022-10-15T07:57:59.940Z,0.31
2022-10-15T08:00:27.446Z,0.74
2022-10-15T08:02:54.604Z,5.37
2022-10-15T08:05:21.567Z,3.35
2022-10-15T08:07:48.668Z,10.34
2022-10-15T08:10:16.400Z,10.44
2022-10-15T08:12:43.382Z,5.63
2022-10-15T08:15:10.884Z,3.70
2022-10-15T08:17:38.013Z,10.33
2022-10-15T08:20:05.510Z,11.17
2022-10-15T08:22:36.893Z,10.99
2022-10-15T08:25:04.654Z,6.29
2022-10-15T08:27:31.763Z,5.86
2022-10-15T08:29:58.710Z,10.88
2022-10-15T08:32:26.027Z,7.57
2022-10-15T08:34:53.093Z,11.61
2022-10-15T08:37:20.105Z,12.51
2022-10-15T08:39:47.465Z,10.87
2022-10-15T08:42:36.637Z,12.85
2022-10-15T08:45:08.360Z,12.11
2022-10-15T08:47:40.605Z,11.74
2022-10-15T08:50:18.043Z,13.24
2022-10-15T08:52:52.152Z,9.80
2022-10-15T08:55:21.448Z,11.61
2022-10-15T08:57:58.262Z,13.53
2022-10-15T09:00:31.081Z,11.53
2022-10-15T09:03:04.278Z,9.06
2022-10-15T09:05:49.081Z,11.85
2022-10-15T09:08:46.793Z,13.48
2022-10-15T09:11:16.797Z,13.66
2022-10-15T09:13:46.440Z,11.47
2022-10-15T09:16:17.877Z,12.36
2022-10-15T09:18:48.523Z,10.31
2022-10-15T09:21:16.212Z,7.81
2022-10-15T09:23:44.556Z,14.13
2022-10-15T09:26:56.859Z,14.32
2022-10-15T09:29:26.544Z,14.58
2022-10-15T09:32:15.244Z,14.84
2022-10-15T09:34:48.944Z,14.98
2022-10-15T09:37:33.228Z,14.59
2022-10-15T09:40:37.373Z,15.05
2022-10-15T09:43:06.304Z,14.30
2022-10-15T09:45:33.793Z,14.87
2022-10-15T09:48:14.286Z,10.23
2022-10-15T09:50:47.839Z,14.85
2022-10-15T09:53:27.490Z,13.89
2022-10-15T09:56:15.511Z,12.58
2022-10-15T09:58:59.294Z,14.25
2022-10-15T10:01:32.017Z,12.73
2022-10-15T10:04:11.307Z,15.10
2022-10-15T10:07:09.508Z,14.54
2022-10-15T10:09:56.828Z,15.12
2022-10-15T10:12:29.226Z,14.52
2022-10-15T10:15:02.831Z,15.19
2022-10-15T10:17:30.911Z,15.37
2022-10-15T10:20:10.340Z,15.42
2022-10-15T10:22:51.508Z,13.55
2022-10-15T10:25:33.262Z,15.42
2022-10-15T10:28:12.044Z,15.39
2022-10-15T10:31:01.239Z,15.40
2022-10-15T10:33:52.640Z,14.90
2022-10-15T10:36:34.647Z,15.38
2022-10-15T10:39:01.587Z,15.41
2022-10-15T10:41:53.659Z,15.41
2022-10-15T10:44:36.694Z,14.70
2022-10-15T10:47:08.924Z,14.25
2022-10-15T10:49:45.037Z,13.60
2022-10-15T10:52:21.188Z,15.80
2022-10-15T10:55:10.302Z,14.92
2022-10-15T10:57:45.766Z,15.30
2022-10-15T11:00:21.396Z,15.92
2022-10-15T11:02:48.996Z,15.11
2022-10-15T11:05:25.317Z,14.89
2022-10-15T11:08:29.577Z,16.10
2022-10-15T11:11:17.818Z,16.22
2022-10-15T11:13:59.061Z,15.49
2022-10-15T11:17:01.497Z,14.97
2022-10-15T11:20:05.733Z,16.39
2022-10-15T11:23:13.409Z,16.36
2022-10-15T11:26:13.648Z,14.19
2022-10-15T11:29:18.413Z,16.26
2022-10-15T11:32:02.724Z,16.28
2022-10-15T11:34:58.862Z,15.78
2022-10-15T11:37:31.455Z,16.41
2022-10-15T11:40:04.443Z,16.52
2022-10-15T11:42:37.974Z,15.60
2022-10-15T11:45:29.514Z,16.68
2022-10-15T11:48:05.798Z,16.76
2022-10-15T11:50:59.365Z,16.86
2022-10-15T11:53:35.140Z,15.95
2022-10-15T11:56:13.689Z,17.02
2022-10-15T11:58:48.295Z,16.81
2022-10-15T12:01:25.080Z,17.29
2022-10-15T12:04:18.605Z,17.22
2022-10-15T12:06:51.123Z,17.19
2022-10-15T12:09:29.315Z,15.18
2022-10-15T12:12:03.610Z,15.66
2022-10-15T12:15:08.682Z,17.30
2022-10-15T12:17:44.688Z,17.41
2022-10-15T12:20:18.263Z,15.35
2022-10-15T12:22:48.202Z,17.42
2022-10-15T12:25:33.970Z,17.38
2022-10-15T12:28:05.390Z,17.34
2022-10-15T12:30:38.043Z,17.29
2022-10-15T12:33:25.056Z,17.28
2022-10-15T12:35:57.897Z,14.42
2022-10-15T12:38:40.987Z,15.72
2022-10-15T12:41:13.253Z,17.37
2022-10-15T12:43:54.254Z,15.77
2022-10-15T12:46:21.124Z,16.00
2022-10-15T12:48:48.351Z,16.39
2022-10-15T12:51:24.479Z,17.36
2022-10-15T12:53:54.797Z,17.39
2022-10-15T12:56:24.666Z,17.36
2022-10-15T12:58:56.053Z,15.99
2022-10-15T13:01:23.012Z,17.29
2022-10-15T13:03:52.783Z,17.31
2022-10-15T13:06:22.959Z,17.32
2022-10-15T13:08:51.635Z,12.90
2022-10-15T13:11:30.359Z,15.80
2022-10-15T13:14:20.285Z,17.22
2022-10-15T13:16:48.950Z,15.81
2022-10-15T13:19:34.832Z,17.07
2022-10-15T13:22:04.102Z,16.12
2022-10-15T13:24:40.682Z,16.69
2022-10-15T13:27:30.631Z,16.23
2022-10-15T13:29:57.554Z,16.89
2022-10-15T13:32:26.820Z,16.81
2022-10-15T13:34:56.281Z,15.93
2022-10-15T13:37:36.217Z,15.51
2022-10-15T13:40:07.929Z,16.69
2022-10-15T13:42:36.008Z,16.68
2022-10-15T13:45:26.385Z,15.77
2022-10-15T13:47:55.321Z,16.63
2022-10-15T13:50:28.231Z,16.61
2022-10-15T13:53:23.384Z,14.96
2022-10-15T13:55:56.599Z,16.57
2022-10-15T13:58:29.647Z,16.25
2022-10-15T14:00:59.146Z,16.57
2022-10-15T14:03:34.057Z,15.26
2022-10-15T14:06:32.213Z,15.76
2022-10-15T14:09:01.904Z,15.41
2022-10-15T14:11:30.382Z,15.49
2022-10-15T14:13:59.275Z,15.61
2022-10-15T14:16:31.378Z,16.40
2022-10-15T14:19:12.229Z,16.40
2022-10-15T14:21:43.391Z,16.39
2022-10-15T14:24:16.991Z,16.43
2022-10-15T14:26:44.798Z,14.77
2022-10-15T14:29:23.015Z,16.37
2022-10-15T14:31:50.202Z,15.71
2022-10-15T14:34:40.270Z,16.29
2022-10-15T14:37:43.086Z,16.23
2022-10-15T14:40:10.268Z,16.19
2022-10-15T14:42:42.550Z,16.16
2022-10-15T14:45:12.458Z,16.11
2022-10-15T14:47:39.914Z,14.60
2022-10-15T14:50:07.437Z,14.87
2022-10-15T14:52:37.654Z,14.53
2022-10-15T14:55:31.998Z,15.98
2022-10-15T14:58:01.818Z,13.48
2022-10-15T15:00:34.607Z,14.98
2022-10-15T15:03:07.179Z,15.01
2022-10-15T15:05:48.435Z,14.25
2022-10-15T15:08:16.052Z,15.79
2022-10-15T15:10:44.718Z,15.75
2022-10-15T15:13:20.206Z,15.50
2022-10-15T15:15:47.626Z,13.59
2022-10-15T15:18:14.684Z,15.68
2022-10-15T15:20:44.046Z,15.63
2022-10-15T15:23:18.058Z,15.28
2022-10-15T15:25:45.116Z,14.43
2022-10-15T15:28:20.130Z,15.46
2022-10-15T15:30:55.536Z,13.08
2022-10-15T15:33:22.525Z,14.73
2022-10-15T15:36:00.497Z,15.29
2022-10-15T15:38:31.608Z,15.25
2022-10-15T15:41:12.530Z,14.06
2022-10-15T15:43:39.651Z,15.19
2022-10-15T15:46:06.998Z,15.19
2022-10-15T15:48:34.117Z,13.64
2022-10-15T15:51:07.070Z,13.77
2022-10-15T15:53:35.591Z,14.13
2022-10-15T15:56:02.654Z,14.80
2022-10-15T15:58:30.057Z,12.84
2022-10-15T16:00:57.160Z,9.84
2022-10-15T16:03:24.184Z,14.66
2022-10-15T16:08:38.994Z,13.48
2022-10-15T16:11:07.569Z,12.85
2022-10-15T16:13:35.324Z,7.25
2022-10-15T16:16:02.695Z,13.83
2022-10-15T16:18:30.111Z,13.85
2022-10-15T16:20:57.213Z,13.39
2022-10-15T16:23:24.257Z,13.99
2022-10-15T16:25:51.221Z,13.51
2022-10-15T16:28:21.262Z,14.91
2022-10-15T16:30:48.210Z,6.90
2022-10-15T16:33:18.023Z,14.61
2022-10-15T16:35:45.005Z,14.23
2022-10-15T16:38:11.929Z,12.56
2022-10-15T16:40:39.313Z,14.87
2022-10-15T16:43:06.264Z,13.44
2022-10-15T16:45:33.793Z,12.77
2022-10-15T16:48:00.748Z,13.50
2022-10-15T16:50:27.735Z,13.79
2022-10-15T16:52:54.857Z,7.44
2022-10-15T16:55:21.784Z,12.22
2022-10-15T16:57:48.746Z,13.75
2022-10-15T17:00:15.731Z,13.12
2022-10-15T17:02:42.692Z,12.77
2022-10-15T17:05:09.880Z,10.74
2022-10-15T17:07:36.818Z,13.17
2022-10-15T17:10:04.567Z,14.01
2022-10-15T17:12:31.543Z,13.99
2022-10-15T17:14:58.479Z,13.73
2022-10-15T17:17:25.622Z,14.76
2022-10-15T17:19:52.696Z,14.48
2022-10-15T17:22:21.430Z,11.97
2022-10-15T17:24:49.887Z,14.76
2022-10-15T17:27:18.124Z,13.87
2022-10-15T17:29:45.593Z,9.27
2022-10-15T17:32:12.540Z,11.72
2022-10-15T17:34:39.481Z,13.36
2022-10-15T17:37:06.456Z,13.32
2022-10-15T17:39:33.845Z,13.96
2022-10-15T17:42:00.754Z,11.94
2022-10-15T17:44:27.869Z,13.57
2022-10-15T17:46:54.809Z,14.36
2022-10-15T17:49:21.767Z,12.91
2022-10-15T17:51:48.964Z,11.96
2022-10-15T17:54:16.214Z,14.66
2022-10-15T17:56:43.412Z,13.44
2022-10-15T17:59:12.616Z,13.47
2022-10-15T18:01:58.897Z,14.56
2022-10-15T18:04:28.474Z,11.76
2022-10-15T18:06:55.484Z,6.21
2022-10-15T18:09:22.430Z,12.93
2022-10-15T18:11:49.561Z,9.25
2022-10-15T18:14:16.608Z,6.45
2022-10-15T18:16:44.353Z,9.08
2022-10-15T18:19:11.497Z,13.67
2022-10-15T18:21:38.674Z,10.00
2022-10-15T18:24:06.027Z,13.14
2022-10-15T18:26:33.013Z,12.66
2022-10-15T18:29:00.057Z,9.76
2022-10-15T18:31:27.157Z,13.30
2022-10-15T18:33:56.145Z,14.17
2022-10-15T18:36:25.073Z,14.17
2022-10-15T18:38:55.674Z,14.17
2022-10-15T18:41:28.765Z,10.20
2022-10-15T18:44:03.754Z,12.19
2022-10-15T18:46:31.501Z,14.02
2022-10-15T18:48:58.929Z,11.74
2022-10-15T18:51:26.310Z,13.63
2022-10-15T18:53:53.658Z,5.85
2022-10-15T18:56:22.071Z,13.88
2022-10-15T18:58:50.287Z,13.54
2022-10-15T19:01:37.503Z,12.14
2022-10-15T19:04:07.610Z,11.83
2022-10-15T19:06:38.328Z,13.87
2022-10-15T19:09:07.290Z,12.42
2022-10-15T19:11:35.746Z,13.79
2022-10-15T19:14:03.198Z,13.86
2022-10-15T19:16:30.356Z,11.41
2022-10-15T19:18:57.491Z,13.89
2022-10-15T19:21:25.142Z,13.22
2022-10-15T19:23:52.145Z,13.60
2022-10-15T19:26:19.295Z,11.35
2022-10-15T19:28:47.319Z,11.72
2022-10-15T19:31:24.774Z,14.03
2022-10-15T19:33:51.932Z,13.11
2022-10-15T19:36:24.676Z,11.59
2022-10-15T19:38:51.813Z,13.45
2022-10-15T19:41:19.590Z,13.10
2022-10-15T19:43:46.847Z,14.06
2022-10-15T19:46:14.820Z,14.05
2022-10-15T19:48:42.244Z,12.59
2022-10-15T19:51:09.482Z,12.59
2022-10-15T19:53:36.743Z,13.19
2022-10-15T19:56:10.437Z,14.07
2022-10-15T19:58:39.470Z,12.94
2022-10-15T20:01:06.436Z,11.81
2022-10-15T20:03:37.263Z,10.90
2022-10-15T20:06:06.603Z,14.03
2022-10-15T20:08:33.961Z,14.06
2022-10-15T20:11:00.878Z,13.15
2022-10-15T20:13:27.818Z,12.81
2022-10-15T20:15:54.950Z,8.66
2022-10-15T20:18:22.432Z,14.05
2022-10-15T20:20:49.468Z,13.71
2022-10-15T20:23:18.011Z,14.09
2022-10-15T20:25:45.992Z,14.09
2022-10-15T20:28:15.074Z,10.40
2022-10-15T20:30:42.369Z,14.12
2022-10-15T20:33:10.639Z,6.06
2022-10-15T20:35:38.867Z,14.14
2022-10-15T20:38:07.315Z,13.35
2022-10-15T20:40:35.496Z,11.91
2022-10-15T20:43:02.485Z,12.52
2022-10-15T20:45:38.620Z,14.01
2022-10-15T20:48:07.799Z,13.34
2022-10-15T20:50:36.224Z,13.04
2022-10-15T20:53:03.694Z,8.04
2022-10-15T20:55:31.179Z,13.95
2022-10-15T20:57:58.233Z,12.30
2022-10-15T21:00:25.178Z,14.08
2022-10-15T21:02:52.188Z,11.63
2022-10-15T21:05:19.152Z,11.80
2022-10-15T21:07:46.129Z,13.08
2022-10-15T21:10:13.187Z,13.05
2022-10-15T21:12:40.158Z,10.48
2022-10-15T21:15:07.792Z,5.57
2022-10-15T21:17:34.916Z,13.35
2022-10-15T21:20:02.025Z,14.01
2022-10-15T21:22:28.970Z,12.58
2022-10-15T21:24:55.922Z,14.02
2022-10-15T21:27:23.145Z,14.03
2022-10-15T21:29:50.339Z,13.09
2022-10-15T21:32:17.484Z,12.87
2022-10-15T21:34:44.721Z,12.91
2022-10-15T21:37:11.970Z,11.11
2022-10-15T21:39:38.971Z,13.70
2022-10-15T21:42:06.042Z,12.53
2022-10-15T21:44:33.851Z,13.25
2022-10-15T21:47:00.849Z,13.25
2022-10-15T21:49:27.833Z,13.02
2022-10-15T21:51:55.016Z,13.97
2022-10-15T21:54:21.959Z,12.54
2022-10-15T21:56:48.880Z,13.62
2022-10-15T21:59:16.061Z,10.07
2022-10-15T22:01:43.109Z,12.40
2022-10-15T22:04:11.233Z,13.94
2022-10-15T22:06:40.523Z,13.47
2022-10-15T22:09:08.520Z,13.93
2022-10-15T22:11:37.932Z,13.02
2022-10-15T22:14:07.714Z,13.93
2022-10-15T22:16:36.904Z,13.68
2022-10-15T22:19:05.107Z,13.91
2022-10-15T22:21:36.665Z,12.83
2022-10-15T22:24:13.906Z,5.30
2022-10-15T22:26:44.413Z,13.86
2022-10-15T22:29:26.449Z,13.84
2022-10-15T22:31:54.312Z,11.90
2022-10-15T22:34:22.663Z,12.57
2022-10-15T22:36:51.298Z,8.38
2022-10-15T22:39:19.412Z,13.84
2022-10-15T22:41:47.621Z,13.84
2022-10-15T22:44:20.330Z,13.84
2022-10-15T22:46:49.919Z,13.11
2022-10-15T22:49:22.529Z,12.55
2022-10-15T22:51:50.770Z,13.89
2022-10-15T22:54:19.267Z,4.63
2022-10-15T22:56:47.605Z,10.75
2022-10-15T22:59:15.756Z,12.99
2022-10-15T23:01:43.069Z,13.70
2022-10-15T23:04:12.899Z,12.45
2022-10-15T23:06:39.897Z,13.10
2022-10-15T23:09:08.509Z,13.40
2022-10-15T23:11:38.291Z,13.93
2022-10-15T23:14:08.554Z,13.93
2022-10-15T23:16:38.199Z,13.92
2022-10-15T23:19:08.147Z,13.89
2022-10-15T23:21:42.397Z,13.64
2022-10-15T23:24:09.761Z,12.05
2022-10-15T23:26:38.234Z,13.96
2022-10-15T23:29:07.652Z,13.01
2022-10-15T23:31:36.252Z,10.12
2022-10-15T23:34:04.846Z,13.98
2022-10-15T23:36:33.337Z,13.15
2022-10-15T23:39:04.071Z,13.94
2022-10-15T23:41:31.437Z,13.93
2022-10-15T23:43:58.802Z,12.52
2022-10-15T23:46:26.155Z,12.38
2022-10-15T23:48:53.065Z,12.80
2022-10-15T23:51:23.050Z,13.09
2022-10-15T23:53:50.707Z,13.92
2022-10-15T23:56:18.479Z,13.54
2022-10-15T23:58:53.832Z,13.10
